sensor_id;sensor_type;location;lat;lon;timestamp;P1;durP1;ratioP1;P2;durP2;ratioP2
2396;SDS011;1209;48.410;9.054;2023-08-20T00:00:44;7.00;;;6.10;;
2396;SDS011;1209;48.410;9.054;2023-08-20T00:03:10;7.37;;;6.50;;
2396;SDS011;1209;48.410;9.054;2023-08-20T00:05:37;9.43;;;7.33;;
2396;SDS011;1209;48.410;9.054;2023-08-20T00:08:03;9.17;;;6.50;;
2396;SDS011;1209;48.410;9.054;2023-08-20T00:10:29;10.83;;;6.80;;
2396;SDS011;1209;48.410;9.054;2023-08-20T00:12:55;7.77;;;6.97;;
2396;SDS011;1209;48.410;9.054;2023-08-20T00:15:20;7.17;;;6.50;;
2396;SDS011;1209;48.410;9.054;2023-08-20T00:17:47;8.20;;;6.50;;
2396;SDS011;1209;48.410;9.054;2023-08-20T00:20:13;6.80;;;6.10;;
2396;SDS011;1209;48.410;9.054;2023-08-20T00:22:39;7.57;;;6.87;;
2396;SDS011;1209;48.410;9.054;2023-08-20T00:25:07;10.40;;;7.00;;
2396;SDS011;1209;48.410;9.054;2023-08-20T00:27:33;7.40;;;5.93;;
2396;SDS011;1209;48.410;9.054;2023-08-20T00:29:58;11.00;;;7.13;;
2396;SDS011;1209;48.410;9.054;2023-08-20T00:32:24;8.30;;;6.80;;
2396;SDS011;1209;48.410;9.054;2023-08-20T00:34:49;9.97;;;7.40;;
2396;SDS011;1209;48.410;9.054;2023-08-20T00:37:14;9.03;;;6.90;;
2396;SDS011;1209;48.410;9.054;2023-08-20T00:39:40;8.10;;;6.70;;
2396;SDS011;1209;48.410;9.054;2023-08-20T00:42:14;8.39;;;6.63;;
2396;SDS011;1209;48.410;9.054;2023-08-20T00:44:40;7.93;;;6.53;;
2396;SDS011;1209;48.410;9.054;2023-08-20T00:47:12;10.97;;;8.13;;
2396;SDS011;1209;48.410;9.054;2023-08-20T00:49:38;7.50;;;6.77;;
2396;SDS011;1209;48.410;9.054;2023-08-20T00:52:04;8.07;;;6.30;;
2396;SDS011;1209;48.410;9.054;2023-08-20T00:54:33;7.87;;;6.20;;
2396;SDS011;1209;48.410;9.054;2023-08-20T00:56:59;8.80;;;7.37;;
2396;SDS011;1209;48.410;9.054;2023-08-20T00:59:24;7.60;;;6.47;;
2396;SDS011;1209;48.410;9.054;2023-08-20T01:01:49;7.77;;;6.60;;
2396;SDS011;1209;48.410;9.054;2023-08-20T01:04:15;6.60;;;6.00;;
2396;SDS011;1209;48.410;9.054;2023-08-20T01:09:19;8.43;;;7.20;;
2396;SDS011;1209;48.410;9.054;2023-08-20T01:11:59;9.40;;;7.10;;
2396;SDS011;1209;48.410;9.054;2023-08-20T01:14:25;12.63;;;7.73;;
2396;SDS011;1209;48.410;9.054;2023-08-20T01:16:51;8.37;;;6.83;;
2396;SDS011;1209;48.410;9.054;2023-08-20T01:19:17;9.83;;;7.80;;
2396;SDS011;1209;48.410;9.054;2023-08-20T01:21:47;7.50;;;6.70;;
2396;SDS011;1209;48.410;9.054;2023-08-20T01:27:28;8.40;;;6.60;;
2396;SDS011;1209;48.410;9.054;2023-08-20T01:30:16;8.30;;;7.40;;
2396;SDS011;1209;48.410;9.054;2023-08-20T01:32:42;7.40;;;6.30;;
2396;SDS011;1209;48.410;9.054;2023-08-20T01:35:11;9.67;;;7.20;;
2396;SDS011;1209;48.410;9.054;2023-08-20T01:37:40;7.50;;;6.80;;
2396;SDS011;1209;48.410;9.054;2023-08-20T01:40:06;7.70;;;6.90;;
2396;SDS011;1209;48.410;9.054;2023-08-20T01:42:35;8.83;;;7.00;;
2396;SDS011;1209;48.410;9.054;2023-08-20T01:45:04;8.43;;;7.63;;
2396;SDS011;1209;48.410;9.054;2023-08-20T01:47:30;7.43;;;6.63;;
2396;SDS011;1209;48.410;9.054;2023-08-20T01:49:57;7.70;;;6.80;;
2396;SDS011;1209;48.410;9.054;2023-08-20T01:52:23;9.40;;;6.57;;
2396;SDS011;1209;48.410;9.054;2023-08-20T01:54:49;10.67;;;7.93;;
2396;SDS011;1209;48.410;9.054;2023-08-20T01:57:14;10.10;;;7.23;;
2396;SDS011;1209;48.410;9.054;2023-08-20T01:59:39;9.83;;;7.00;;
2396;SDS011;1209;48.410;9.054;2023-08-20T02:02:05;7.60;;;6.80;;
2396;SDS011;1209;48.410;9.054;2023-08-20T02:04:31;7.90;;;7.00;;
2396;SDS011;1209;48.410;9.054;2023-08-20T02:06:56;8.17;;;7.37;;
2396;SDS011;1209;48.410;9.054;2023-08-20T02:09:22;7.17;;;6.40;;
2396;SDS011;1209;48.410;9.054;2023-08-20T02:11:47;9.40;;;6.83;;
2396;SDS011;1209;48.410;9.054;2023-08-20T02:14:12;7.90;;;7.10;;
2396;SDS011;1209;48.410;9.054;2023-08-20T02:16:38;8.27;;;7.07;;
2396;SDS011;1209;48.410;9.054;2023-08-20T02:19:03;9.60;;;7.10;;
2396;SDS011;1209;48.410;9.054;2023-08-20T02:21:30;9.93;;;6.33;;
2396;SDS011;1209;48.410;9.054;2023-08-20T02:23:56;10.83;;;7.30;;
2396;SDS011;1209;48.410;9.054;2023-08-20T02:26:21;8.13;;;7.00;;
2396;SDS011;1209;48.410;9.054;2023-08-20T02:28:46;8.03;;;7.23;;
2396;SDS011;1209;48.410;9.054;2023-08-20T02:31:12;10.93;;;7.80;;
2396;SDS011;1209;48.410;9.054;2023-08-20T02:33:37;9.97;;;7.00;;
2396;SDS011;1209;48.410;9.054;2023-08-20T02:36:02;7.20;;;6.47;;
2396;SDS011;1209;48.410;9.054;2023-08-20T02:38:28;7.43;;;6.67;;
2396;SDS011;1209;48.410;9.054;2023-08-20T02:40:54;8.73;;;7.83;;
2396;SDS011;1209;48.410;9.054;2023-08-20T02:43:19;8.03;;;7.27;;
2396;SDS011;1209;48.410;9.054;2023-08-20T02:45:45;8.73;;;7.13;;
2396;SDS011;1209;48.410;9.054;2023-08-20T02:48:11;7.60;;;6.30;;
2396;SDS011;1209;48.410;9.054;2023-08-20T02:50:37;8.80;;;7.90;;
2396;SDS011;1209;48.410;9.054;2023-08-20T02:53:02;11.40;;;7.73;;
2396;SDS011;1209;48.410;9.054;2023-08-20T02:55:28;7.70;;;6.87;;
2396;SDS011;1209;48.410;9.054;2023-08-20T02:57:54;8.77;;;7.80;;
2396;SDS011;1209;48.410;9.054;2023-08-20T03:00:20;9.30;;;7.93;;
2396;SDS011;1209;48.410;9.054;2023-08-20T03:02:45;10.37;;;7.87;;
2396;SDS011;1209;48.410;9.054;2023-08-20T03:05:10;8.10;;;7.30;;
2396;SDS011;1209;48.410;9.054;2023-08-20T03:07:36;8.27;;;7.43;;
2396;SDS011;1209;48.410;9.054;2023-08-20T03:10:01;10.03;;;7.40;;
2396;SDS011;1209;48.410;9.054;2023-08-20T03:12:27;9.00;;;7.50;;
2396;SDS011;1209;48.410;9.054;2023-08-20T03:14:53;8.90;;;7.50;;
2396;SDS011;1209;48.410;9.054;2023-08-20T03:17:18;9.80;;;7.90;;
2396;SDS011;1209;48.410;9.054;2023-08-20T03:20:17;10.70;;;7.20;;
2396;SDS011;1209;48.410;9.054;2023-08-20T03:22:37;8.27;;;7.20;;
2396;SDS011;1209;48.410;9.054;2023-08-20T03:25:03;9.23;;;7.93;;
2396;SDS011;1209;48.410;9.054;2023-08-20T03:27:29;10.47;;;7.53;;
2396;SDS011;1209;48.410;9.054;2023-08-20T03:29:55;8.20;;;7.20;;
2396;SDS011;1209;48.410;9.054;2023-08-20T03:32:20;8.87;;;7.10;;
2396;SDS011;1209;48.410;9.054;2023-08-20T03:34:45;8.60;;;7.70;;
2396;SDS011;1209;48.410;9.054;2023-08-20T03:37:11;8.90;;;8.00;;
2396;SDS011;1209;48.410;9.054;2023-08-20T03:39:36;10.20;;;7.77;;
2396;SDS011;1209;48.410;9.054;2023-08-20T03:42:02;8.87;;;7.50;;
2396;SDS011;1209;48.410;9.054;2023-08-20T03:44:27;7.97;;;6.80;;
2396;SDS011;1209;48.410;9.054;2023-08-20T03:46:54;7.67;;;6.87;;
2396;SDS011;1209;48.410;9.054;2023-08-20T03:49:19;9.90;;;7.70;;
2396;SDS011;1209;48.410;9.054;2023-08-20T03:51:44;7.40;;;6.70;;
2396;SDS011;1209;48.410;9.054;2023-08-20T03:54:10;16.03;;;10.53;;
2396;SDS011;1209;48.410;9.054;2023-08-20T03:56:35;12.53;;;7.47;;
2396;SDS011;1209;48.410;9.054;2023-08-20T03:59:01;10.10;;;7.83;;
2396;SDS011;1209;48.410;9.054;2023-08-20T04:01:26;9.20;;;7.63;;
2396;SDS011;1209;48.410;9.054;2023-08-20T04:03:52;12.63;;;8.23;;
2396;SDS011;1209;48.410;9.054;2023-08-20T04:06:17;8.83;;;7.93;;
2396;SDS011;1209;48.410;9.054;2023-08-20T04:08:42;7.90;;;7.10;;
2396;SDS011;1209;48.410;9.054;2023-08-20T04:11:08;8.73;;;7.70;;
2396;SDS011;1209;48.410;9.054;2023-08-20T04:13:34;13.57;;;9.13;;
2396;SDS011;1209;48.410;9.054;2023-08-20T04:15:59;9.47;;;7.83;;
2396;SDS011;1209;48.410;9.054;2023-08-20T04:18:24;9.13;;;7.63;;
2396;SDS011;1209;48.410;9.054;2023-08-20T04:20:50;11.20;;;7.97;;
2396;SDS011;1209;48.410;9.054;2023-08-20T04:23:17;9.00;;;8.10;;
2396;SDS011;1209;48.410;9.054;2023-08-20T04:25:43;11.53;;;8.00;;
2396;SDS011;1209;48.410;9.054;2023-08-20T04:28:09;10.00;;;7.47;;
2396;SDS011;1209;48.410;9.054;2023-08-20T04:30:35;10.47;;;8.60;;
2396;SDS011;1209;48.410;9.054;2023-08-20T04:33:01;8.40;;;7.40;;
2396;SDS011;1209;48.410;9.054;2023-08-20T04:35:26;10.83;;;8.47;;
2396;SDS011;1209;48.410;9.054;2023-08-20T04:37:51;14.53;;;7.17;;
2396;SDS011;1209;48.410;9.054;2023-08-20T04:40:17;10.70;;;8.23;;
2396;SDS011;1209;48.410;9.054;2023-08-20T04:42:42;8.60;;;7.63;;
2396;SDS011;1209;48.410;9.054;2023-08-20T04:45:08;12.93;;;10.10;;
2396;SDS011;1209;48.410;9.054;2023-08-20T04:47:33;10.77;;;7.57;;
2396;SDS011;1209;48.410;9.054;2023-08-20T04:49:59;9.60;;;7.57;;
2396;SDS011;1209;48.410;9.054;2023-08-20T04:52:24;13.03;;;8.50;;
2396;SDS011;1209;48.410;9.054;2023-08-20T04:54:50;12.40;;;8.70;;
2396;SDS011;1209;48.410;9.054;2023-08-20T04:57:15;11.80;;;8.07;;
2396;SDS011;1209;48.410;9.054;2023-08-20T04:59:41;10.47;;;8.80;;
2396;SDS011;1209;48.410;9.054;2023-08-20T05:02:10;15.33;;;8.20;;
2396;SDS011;1209;48.410;9.054;2023-08-20T05:04:35;10.63;;;8.50;;
2396;SDS011;1209;48.410;9.054;2023-08-20T05:07:00;11.97;;;8.40;;
2396;SDS011;1209;48.410;9.054;2023-08-20T05:09:26;11.07;;;8.87;;
2396;SDS011;1209;48.410;9.054;2023-08-20T05:11:51;10.03;;;7.90;;
2396;SDS011;1209;48.410;9.054;2023-08-20T05:14:16;10.33;;;8.83;;
2396;SDS011;1209;48.410;9.054;2023-08-20T05:16:41;10.13;;;8.57;;
2396;SDS011;1209;48.410;9.054;2023-08-20T05:19:07;11.90;;;8.07;;
2396;SDS011;1209;48.410;9.054;2023-08-20T05:21:33;9.47;;;8.57;;
2396;SDS011;1209;48.410;9.054;2023-08-20T05:23:58;12.63;;;8.90;;
2396;SDS011;1209;48.410;9.054;2023-08-20T05:26:24;11.13;;;8.50;;
2396;SDS011;1209;48.410;9.054;2023-08-20T05:28:49;10.83;;;8.00;;
2396;SDS011;1209;48.410;9.054;2023-08-20T05:31:14;10.40;;;8.40;;
2396;SDS011;1209;48.410;9.054;2023-08-20T05:33:39;15.30;;;8.93;;
2396;SDS011;1209;48.410;9.054;2023-08-20T05:36:05;10.50;;;8.60;;
2396;SDS011;1209;48.410;9.054;2023-08-20T05:38:30;9.20;;;8.30;;
2396;SDS011;1209;48.410;9.054;2023-08-20T05:40:55;10.00;;;8.77;;
2396;SDS011;1209;48.410;9.054;2023-08-20T05:43:21;13.77;;;9.30;;
2396;SDS011;1209;48.410;9.054;2023-08-20T05:45:46;9.40;;;7.73;;
2396;SDS011;1209;48.410;9.054;2023-08-20T05:48:11;10.53;;;8.40;;
2396;SDS011;1209;48.410;9.054;2023-08-20T05:50:37;13.07;;;8.70;;
2396;SDS011;1209;48.410;9.054;2023-08-20T05:53:02;11.37;;;9.80;;
2396;SDS011;1209;48.410;9.054;2023-08-20T05:55:27;10.73;;;9.20;;
2396;SDS011;1209;48.410;9.054;2023-08-20T05:57:53;10.40;;;8.73;;
2396;SDS011;1209;48.410;9.054;2023-08-20T06:00:18;10.50;;;8.93;;
2396;SDS011;1209;48.410;9.054;2023-08-20T06:02:43;13.17;;;8.60;;
2396;SDS011;1209;48.410;9.054;2023-08-20T06:05:09;11.40;;;9.27;;
2396;SDS011;1209;48.410;9.054;2023-08-20T06:07:35;11.70;;;9.63;;
2396;SDS011;1209;48.410;9.054;2023-08-20T06:10:00;11.60;;;9.50;;
2396;SDS011;1209;48.410;9.054;2023-08-20T06:12:26;11.80;;;9.10;;
2396;SDS011;1209;48.410;9.054;2023-08-20T06:14:51;12.17;;;9.47;;
2396;SDS011;1209;48.410;9.054;2023-08-20T06:17:16;12.57;;;9.20;;
2396;SDS011;1209;48.410;9.054;2023-08-20T06:19:42;10.33;;;8.23;;
2396;SDS011;1209;48.410;9.054;2023-08-20T06:22:07;10.93;;;8.70;;
2396;SDS011;1209;48.410;9.054;2023-08-20T06:24:33;9.73;;;8.37;;
2396;SDS011;1209;48.410;9.054;2023-08-20T06:26:58;10.60;;;8.13;;
2396;SDS011;1209;48.410;9.054;2023-08-20T06:29:23;11.80;;;8.87;;
2396;SDS011;1209;48.410;9.054;2023-08-20T06:31:49;11.43;;;9.60;;
2396;SDS011;1209;48.410;9.054;2023-08-20T06:34:15;15.77;;;8.90;;
2396;SDS011;1209;48.410;9.054;2023-08-20T06:36:40;11.73;;;10.07;;
2396;SDS011;1209;48.410;9.054;2023-08-20T06:39:06;10.80;;;9.23;;
2396;SDS011;1209;48.410;9.054;2023-08-20T06:41:31;10.30;;;8.53;;
2396;SDS011;1209;48.410;9.054;2023-08-20T06:43:56;10.00;;;8.77;;
2396;SDS011;1209;48.410;9.054;2023-08-20T06:46:22;10.40;;;8.53;;
2396;SDS011;1209;48.410;9.054;2023-08-20T06:48:49;10.20;;;8.63;;
2396;SDS011;1209;48.410;9.054;2023-08-20T06:51:15;10.77;;;9.30;;
2396;SDS011;1209;48.410;9.054;2023-08-20T06:53:41;13.10;;;9.13;;
2396;SDS011;1209;48.410;9.054;2023-08-20T06:56:09;9.27;;;7.63;;
2396;SDS011;1209;48.410;9.054;2023-08-20T06:58:35;10.80;;;9.70;;
2396;SDS011;1209;48.410;9.054;2023-08-20T07:01:01;9.47;;;8.47;;
2396;SDS011;1209;48.410;9.054;2023-08-20T07:03:39;9.90;;;7.87;;
2396;SDS011;1209;48.410;9.054;2023-08-20T07:06:05;9.70;;;8.73;;
2396;SDS011;1209;48.410;9.054;2023-08-20T07:08:32;10.20;;;8.23;;
2396;SDS011;1209;48.410;9.054;2023-08-20T07:10:57;11.03;;;7.53;;
2396;SDS011;1209;48.410;9.054;2023-08-20T07:13:23;14.17;;;9.07;;
2396;SDS011;1209;48.410;9.054;2023-08-20T07:15:49;10.90;;;8.17;;
2396;SDS011;1209;48.410;9.054;2023-08-20T07:18:14;11.50;;;8.00;;
2396;SDS011;1209;48.410;9.054;2023-08-20T07:20:42;11.07;;;8.53;;
2396;SDS011;1209;48.410;9.054;2023-08-20T07:23:08;10.63;;;9.00;;
2396;SDS011;1209;48.410;9.054;2023-08-20T07:25:33;15.90;;;8.40;;
2396;SDS011;1209;48.410;9.054;2023-08-20T07:28:01;11.10;;;8.70;;
2396;SDS011;1209;48.410;9.054;2023-08-20T07:30:27;10.53;;;8.80;;
2396;SDS011;1209;48.410;9.054;2023-08-20T07:32:53;11.00;;;7.90;;
2396;SDS011;1209;48.410;9.054;2023-08-20T07:35:18;9.10;;;8.30;;
2396;SDS011;1209;48.410;9.054;2023-08-20T07:37:43;9.70;;;8.70;;
2396;SDS011;1209;48.410;9.054;2023-08-20T07:40:09;12.10;;;8.37;;
2396;SDS011;1209;48.410;9.054;2023-08-20T07:42:36;8.60;;;7.53;;
2396;SDS011;1209;48.410;9.054;2023-08-20T07:45:01;11.77;;;8.40;;
2396;SDS011;1209;48.410;9.054;2023-08-20T07:47:27;8.77;;;7.70;;
2396;SDS011;1209;48.410;9.054;2023-08-20T07:49:54;10.10;;;9.10;;
2396;SDS011;1209;48.410;9.054;2023-08-20T07:52:20;8.67;;;7.77;;
2396;SDS011;1209;48.410;9.054;2023-08-20T07:54:46;12.73;;;8.50;;
2396;SDS011;1209;48.410;9.054;2023-08-20T07:57:11;11.83;;;9.00;;
2396;SDS011;1209;48.410;9.054;2023-08-20T07:59:37;10.93;;;8.60;;
2396;SDS011;1209;48.410;9.054;2023-08-20T08:02:03;10.50;;;9.40;;
2396;SDS011;1209;48.410;9.054;2023-08-20T08:04:28;18.17;;;9.57;;
2396;SDS011;1209;48.410;9.054;2023-08-20T08:06:53;9.73;;;8.80;;
2396;SDS011;1209;48.410;9.054;2023-08-20T08:09:19;13.00;;;8.83;;
2396;SDS011;1209;48.410;9.054;2023-08-20T08:11:46;9.70;;;8.50;;
2396;SDS011;1209;48.410;9.054;2023-08-20T08:14:12;10.77;;;9.53;;
2396;SDS011;1209;48.410;9.054;2023-08-20T08:16:37;12.27;;;9.43;;
2396;SDS011;1209;48.410;9.054;2023-08-20T08:19:03;9.20;;;8.30;;
2396;SDS011;1209;48.410;9.054;2023-08-20T08:21:28;9.97;;;8.97;;
2396;SDS011;1209;48.410;9.054;2023-08-20T08:23:53;10.73;;;9.63;;
2396;SDS011;1209;48.410;9.054;2023-08-20T08:26:19;10.10;;;9.10;;
2396;SDS011;1209;48.410;9.054;2023-08-20T08:28:44;10.30;;;9.00;;
2396;SDS011;1209;48.410;9.054;2023-08-20T08:31:09;12.10;;;9.30;;
2396;SDS011;1209;48.410;9.054;2023-08-20T08:33:34;13.80;;;9.87;;
2396;SDS011;1209;48.410;9.054;2023-08-20T08:36:00;11.50;;;9.30;;
2396;SDS011;1209;48.410;9.054;2023-08-20T08:38:25;9.87;;;8.87;;
2396;SDS011;1209;48.410;9.054;2023-08-20T08:40:50;9.70;;;8.50;;
2396;SDS011;1209;48.410;9.054;2023-08-20T08:43:17;11.23;;;8.07;;
2396;SDS011;1209;48.410;9.054;2023-08-20T08:45:45;9.57;;;8.10;;
2396;SDS011;1209;48.410;9.054;2023-08-20T08:48:12;9.30;;;8.40;;
2396;SDS011;1209;48.410;9.054;2023-08-20T08:50:38;9.03;;;8.10;;
2396;SDS011;1209;48.410;9.054;2023-08-20T08:53:03;15.03;;;8.70;;
2396;SDS011;1209;48.410;9.054;2023-08-20T08:55:30;10.30;;;8.30;;
2396;SDS011;1209;48.410;9.054;2023-08-20T08:57:55;12.00;;;9.17;;
2396;SDS011;1209;48.410;9.054;2023-08-20T09:00:21;9.37;;;8.37;;
2396;SDS011;1209;48.410;9.054;2023-08-20T09:02:46;12.30;;;8.87;;
2396;SDS011;1209;48.410;9.054;2023-08-20T09:05:14;8.73;;;7.80;;
2396;SDS011;1209;48.410;9.054;2023-08-20T09:07:43;10.30;;;9.40;;
2396;SDS011;1209;48.410;9.054;2023-08-20T09:10:12;10.93;;;9.13;;
2396;SDS011;1209;48.410;9.054;2023-08-20T09:12:37;14.03;;;8.00;;
2396;SDS011;1209;48.410;9.054;2023-08-20T09:15:03;9.10;;;7.77;;
2396;SDS011;1209;48.410;9.054;2023-08-20T09:17:34;13.20;;;8.17;;
2396;SDS011;1209;48.410;9.054;2023-08-20T09:20:00;13.13;;;7.87;;
2396;SDS011;1209;48.410;9.054;2023-08-20T09:22:26;8.30;;;7.40;;
2396;SDS011;1209;48.410;9.054;2023-08-20T09:24:55;7.17;;;6.40;;
2396;SDS011;1209;48.410;9.054;2023-08-20T09:27:21;9.50;;;7.37;;
2396;SDS011;1209;48.410;9.054;2023-08-20T09:29:48;7.77;;;7.00;;
2396;SDS011;1209;48.410;9.054;2023-08-20T09:32:17;8.03;;;7.07;;
2396;SDS011;1209;48.410;9.054;2023-08-20T09:34:44;7.83;;;6.67;;
2396;SDS011;1209;48.410;9.054;2023-08-20T09:37:10;11.83;;;7.93;;
2396;SDS011;1209;48.410;9.054;2023-08-20T09:39:38;7.80;;;7.00;;
2396;SDS011;1209;48.410;9.054;2023-08-20T09:42:04;9.93;;;7.13;;
2396;SDS011;1209;48.410;9.054;2023-08-20T09:44:34;13.00;;;6.90;;
2396;SDS011;1209;48.410;9.054;2023-08-20T09:47:02;9.57;;;6.60;;
2396;SDS011;1209;48.410;9.054;2023-08-20T09:49:30;8.30;;;6.83;;
2396;SDS011;1209;48.410;9.054;2023-08-20T09:52:01;10.33;;;7.57;;
2396;SDS011;1209;48.410;9.054;2023-08-20T09:54:34;7.07;;;6.37;;
2396;SDS011;1209;48.410;9.054;2023-08-20T09:57:01;7.03;;;6.43;;
2396;SDS011;1209;48.410;9.054;2023-08-20T09:59:32;7.83;;;7.03;;
2396;SDS011;1209;48.410;9.054;2023-08-20T10:02:00;10.20;;;7.00;;
2396;SDS011;1209;48.410;9.054;2023-08-20T10:04:26;7.00;;;6.30;;
2396;SDS011;1209;48.410;9.054;2023-08-20T10:06:53;7.73;;;6.70;;
2396;SDS011;1209;48.410;9.054;2023-08-20T10:09:19;7.57;;;6.87;;
2396;SDS011;1209;48.410;9.054;2023-08-20T10:11:46;9.00;;;6.60;;
2396;SDS011;1209;48.410;9.054;2023-08-20T10:14:11;7.23;;;6.60;;
2396;SDS011;1209;48.410;9.054;2023-08-20T10:16:38;10.77;;;7.37;;
2396;SDS011;1209;48.410;9.054;2023-08-20T10:19:05;11.13;;;7.10;;
2396;SDS011;1209;48.410;9.054;2023-08-20T10:21:31;8.00;;;7.00;;
2396;SDS011;1209;48.410;9.054;2023-08-20T10:23:57;8.60;;;7.03;;
2396;SDS011;1209;48.410;9.054;2023-08-20T10:26:22;11.20;;;7.33;;
2396;SDS011;1209;48.410;9.054;2023-08-20T10:28:49;10.43;;;7.67;;
2396;SDS011;1209;48.410;9.054;2023-08-20T10:31:16;8.73;;;7.20;;
2396;SDS011;1209;48.410;9.054;2023-08-20T10:36:17;8.90;;;8.00;;
2396;SDS011;1209;48.410;9.054;2023-08-20T10:38:49;11.10;;;7.40;;
2396;SDS011;1209;48.410;9.054;2023-08-20T10:41:15;6.70;;;6.10;;
2396;SDS011;1209;48.410;9.054;2023-08-20T10:43:47;7.30;;;6.20;;
2396;SDS011;1209;48.410;9.054;2023-08-20T10:46:20;9.03;;;7.90;;
2396;SDS011;1209;48.410;9.054;2023-08-20T10:48:54;7.63;;;6.37;;
2396;SDS011;1209;48.410;9.054;2023-08-20T10:56:24;6.47;;;5.87;;
2396;SDS011;1209;48.410;9.054;2023-08-20T10:59:05;7.20;;;6.60;;
2396;SDS011;1209;48.410;9.054;2023-08-20T11:01:31;8.13;;;7.33;;
2396;SDS011;1209;48.410;9.054;2023-08-20T11:03:57;9.90;;;6.77;;
2396;SDS011;1209;48.410;9.054;2023-08-20T11:06:25;9.40;;;6.70;;
2396;SDS011;1209;48.410;9.054;2023-08-20T11:08:57;6.90;;;6.20;;
2396;SDS011;1209;48.410;9.054;2023-08-20T11:11:22;7.63;;;6.27;;
2396;SDS011;1209;48.410;9.054;2023-08-20T11:13:48;7.20;;;6.27;;
2396;SDS011;1209;48.410;9.054;2023-08-20T11:16:13;12.87;;;6.40;;
2396;SDS011;1209;48.410;9.054;2023-08-20T11:18:39;7.83;;;6.10;;
2396;SDS011;1209;48.410;9.054;2023-08-20T11:21:04;6.20;;;5.60;;
2396;SDS011;1209;48.410;9.054;2023-08-20T11:23:30;6.67;;;6.00;;
2396;SDS011;1209;48.410;9.054;2023-08-20T11:25:56;6.47;;;5.87;;
2396;SDS011;1209;48.410;9.054;2023-08-20T11:28:22;10.13;;;5.43;;
2396;SDS011;1209;48.410;9.054;2023-08-20T11:30:47;7.20;;;6.00;;
2396;SDS011;1209;48.410;9.054;2023-08-20T11:33:12;9.77;;;6.97;;
2396;SDS011;1209;48.410;9.054;2023-08-20T11:35:38;6.53;;;5.80;;
2396;SDS011;1209;48.410;9.054;2023-08-20T11:38:03;7.40;;;6.60;;
2396;SDS011;1209;48.410;9.054;2023-08-20T11:40:29;8.27;;;6.53;;
2396;SDS011;1209;48.410;9.054;2023-08-20T11:42:54;6.93;;;6.33;;
2396;SDS011;1209;48.410;9.054;2023-08-20T11:45:20;7.10;;;6.50;;
2396;SDS011;1209;48.410;9.054;2023-08-20T11:47:45;9.53;;;6.87;;
2396;SDS011;1209;48.410;9.054;2023-08-20T11:50:11;7.47;;;6.43;;
2396;SDS011;1209;48.410;9.054;2023-08-20T11:52:36;7.10;;;6.40;;
2396;SDS011;1209;48.410;9.054;2023-08-20T11:55:02;6.87;;;6.27;;
2396;SDS011;1209;48.410;9.054;2023-08-20T11:57:28;9.20;;;5.70;;
2396;SDS011;1209;48.410;9.054;2023-08-20T11:59:55;7.13;;;5.77;;
2396;SDS011;1209;48.410;9.054;2023-08-20T12:02:25;6.93;;;6.33;;
2396;SDS011;1209;48.410;9.054;2023-08-20T12:04:52;5.63;;;5.13;;
2396;SDS011;1209;48.410;9.054;2023-08-20T12:07:20;6.90;;;6.30;;
2396;SDS011;1209;48.410;9.054;2023-08-20T12:09:50;7.20;;;6.53;;
2396;SDS011;1209;48.410;9.054;2023-08-20T12:12:16;8.60;;;5.70;;
2396;SDS011;1209;48.410;9.054;2023-08-20T12:14:44;6.67;;;6.07;;
2396;SDS011;1209;48.410;9.054;2023-08-20T12:17:09;6.90;;;6.20;;
2396;SDS011;1209;48.410;9.054;2023-08-20T12:19:35;5.87;;;5.40;;
2396;SDS011;1209;48.410;9.054;2023-08-20T12:22:00;6.30;;;5.77;;
2396;SDS011;1209;48.410;9.054;2023-08-20T12:24:25;5.93;;;5.40;;
2396;SDS011;1209;48.410;9.054;2023-08-20T12:26:51;6.50;;;6.00;;
2396;SDS011;1209;48.410;9.054;2023-08-20T12:29:16;10.80;;;5.73;;
2396;SDS011;1209;48.410;9.054;2023-08-20T12:31:41;6.00;;;5.47;;
2396;SDS011;1209;48.410;9.054;2023-08-20T12:34:07;8.13;;;6.67;;
2396;SDS011;1209;48.410;9.054;2023-08-20T12:36:34;6.77;;;6.17;;
2396;SDS011;1209;48.410;9.054;2023-08-20T12:38:59;6.60;;;6.00;;
2396;SDS011;1209;48.410;9.054;2023-08-20T12:41:25;7.53;;;6.13;;
2396;SDS011;1209;48.410;9.054;2023-08-20T12:43:50;6.17;;;5.60;;
2396;SDS011;1209;48.410;9.054;2023-08-20T12:46:16;6.47;;;5.87;;
2396;SDS011;1209;48.410;9.054;2023-08-20T12:48:42;7.80;;;6.77;;
2396;SDS011;1209;48.410;9.054;2023-08-20T12:51:07;6.57;;;6.00;;
2396;SDS011;1209;48.410;9.054;2023-08-20T12:53:33;11.20;;;6.10;;
2396;SDS011;1209;48.410;9.054;2023-08-20T12:55:59;7.50;;;5.37;;
2396;SDS011;1209;48.410;9.054;2023-08-20T12:58:24;6.57;;;6.07;;
2396;SDS011;1209;48.410;9.054;2023-08-20T13:00:52;7.63;;;6.50;;
2396;SDS011;1209;48.410;9.054;2023-08-20T13:03:18;10.87;;;6.30;;
2396;SDS011;1209;48.410;9.054;2023-08-20T13:05:43;7.33;;;5.90;;
2396;SDS011;1209;48.410;9.054;2023-08-20T13:08:09;6.50;;;5.83;;
2396;SDS011;1209;48.410;9.054;2023-08-20T13:10:37;10.90;;;5.60;;
2396;SDS011;1209;48.410;9.054;2023-08-20T13:13:08;14.10;;;6.30;;
2396;SDS011;1209;48.410;9.054;2023-08-20T13:15:36;7.70;;;6.90;;
2396;SDS011;1209;48.410;9.054;2023-08-20T13:18:02;11.10;;;7.60;;
2396;SDS011;1209;48.410;9.054;2023-08-20T13:20:29;6.70;;;6.10;;
2396;SDS011;1209;48.410;9.054;2023-08-20T13:22:54;7.60;;;6.10;;
2396;SDS011;1209;48.410;9.054;2023-08-20T13:25:20;6.47;;;5.93;;
2396;SDS011;1209;48.410;9.054;2023-08-20T13:27:46;7.40;;;6.80;;
2396;SDS011;1209;48.410;9.054;2023-08-20T13:30:12;5.90;;;5.40;;
2396;SDS011;1209;48.410;9.054;2023-08-20T13:32:38;6.57;;;6.03;;
2396;SDS011;1209;48.410;9.054;2023-08-20T13:35:04;7.40;;;6.70;;
2396;SDS011;1209;48.410;9.054;2023-08-20T13:37:30;10.37;;;6.70;;
2396;SDS011;1209;48.410;9.054;2023-08-20T13:39:59;8.50;;;6.80;;
2396;SDS011;1209;48.410;9.054;2023-08-20T13:42:24;14.90;;;8.10;;
2396;SDS011;1209;48.410;9.054;2023-08-20T13:44:50;8.13;;;6.97;;
2396;SDS011;1209;48.410;9.054;2023-08-20T13:47:16;9.60;;;7.90;;
2396;SDS011;1209;48.410;9.054;2023-08-20T13:49:41;9.83;;;7.13;;
2396;SDS011;1209;48.410;9.054;2023-08-20T13:52:06;6.53;;;5.63;;
2396;SDS011;1209;48.410;9.054;2023-08-20T13:54:35;7.50;;;6.60;;
2396;SDS011;1209;48.410;9.054;2023-08-20T13:57:01;6.50;;;5.93;;
2396;SDS011;1209;48.410;9.054;2023-08-20T13:59:26;7.40;;;6.77;;
2396;SDS011;1209;48.410;9.054;2023-08-20T14:01:51;7.73;;;6.90;;
2396;SDS011;1209;48.410;9.054;2023-08-20T14:04:17;7.73;;;6.03;;
2396;SDS011;1209;48.410;9.054;2023-08-20T14:06:42;10.17;;;6.40;;
2396;SDS011;1209;48.410;9.054;2023-08-20T14:09:07;7.00;;;6.40;;
2396;SDS011;1209;48.410;9.054;2023-08-20T14:11:33;6.70;;;6.10;;
2396;SDS011;1209;48.410;9.054;2023-08-20T14:13:58;10.37;;;7.40;;
2396;SDS011;1209;48.410;9.054;2023-08-20T14:16:25;6.77;;;6.10;;
2396;SDS011;1209;48.410;9.054;2023-08-20T14:18:50;7.37;;;6.63;;
2396;SDS011;1209;48.410;9.054;2023-08-20T14:21:16;9.43;;;6.77;;
2396;SDS011;1209;48.410;9.054;2023-08-20T14:23:41;6.90;;;6.20;;
2396;SDS011;1209;48.410;9.054;2023-08-20T14:26:07;9.70;;;6.67;;
2396;SDS011;1209;48.410;9.054;2023-08-20T14:28:32;8.80;;;6.60;;
2396;SDS011;1209;48.410;9.054;2023-08-20T14:31:01;8.93;;;6.80;;
2396;SDS011;1209;48.410;9.054;2023-08-20T14:33:28;7.40;;;6.80;;
2396;SDS011;1209;48.410;9.054;2023-08-20T14:35:54;8.03;;;7.33;;
2396;SDS011;1209;48.410;9.054;2023-08-20T14:38:19;6.70;;;6.13;;
2396;SDS011;1209;48.410;9.054;2023-08-20T14:40:44;8.67;;;7.20;;
2396;SDS011;1209;48.410;9.054;2023-08-20T14:43:10;9.40;;;6.60;;
2396;SDS011;1209;48.410;9.054;2023-08-20T14:45:35;11.10;;;7.17;;
2396;SDS011;1209;48.410;9.054;2023-08-20T14:48:00;8.03;;;6.97;;
2396;SDS011;1209;48.410;9.054;2023-08-20T14:50:26;7.50;;;6.80;;
2396;SDS011;1209;48.410;9.054;2023-08-20T14:52:51;7.87;;;7.00;;
2396;SDS011;1209;48.410;9.054;2023-08-20T14:55:17;11.17;;;6.80;;
2396;SDS011;1209;48.410;9.054;2023-08-20T14:57:43;7.20;;;6.50;;
2396;SDS011;1209;48.410;9.054;2023-08-20T15:00:09;9.57;;;6.63;;
2396;SDS011;1209;48.410;9.054;2023-08-20T15:02:38;10.73;;;6.73;;
2396;SDS011;1209;48.410;9.054;2023-08-20T15:05:04;7.93;;;7.13;;
2396;SDS011;1209;48.410;9.054;2023-08-20T15:07:30;8.33;;;7.03;;
2396;SDS011;1209;48.410;9.054;2023-08-20T15:09:55;7.47;;;6.73;;
2396;SDS011;1209;48.410;9.054;2023-08-20T15:12:21;7.97;;;7.17;;
2396;SDS011;1209;48.410;9.054;2023-08-20T15:14:46;8.17;;;7.37;;
2396;SDS011;1209;48.410;9.054;2023-08-20T15:17:11;7.97;;;6.73;;